Terminal Aerodrome Forecast
Issued by NWS

Home | Current Version | Previous Version | Text Only | Print | Product List | Glossary On
Versions: 1 2 3 4 5 6 7 8 9 10 11 12 13 14 15 16 17 18 19 20 21 22 23
000
FTUS46 KOTX 230535
TAFCOE
TAF
KCOE 230535Z 2306/2406 13007KT P6SM VCSH SCT080 BKN100 OVC150
     FM230900 08006KT P6SM -SHRA SCT040 BKN070 OVC150
     FM231700 18006KT P6SM VCSH SCT100 BKN120 BKN150
     FM232100 25007KT P6SM VCSH SCT100 BKN120
      AMD LTD TO CLD AND VIS=

USA.gov is the U.S. government's official web portal to all federal, state and local government web resources and services.